Time;durP1;ratioP1;P1;durP2;ratioP2;P2;SDS_P1;SDS_P2;PMS_P1;PMS_P2;Temp;Humidity;BMP_temperature;BMP_pressure;BME280_temperature;BME280_humidity;BME280_pressure;Samples;Min_cycle;Max_cycle;Signal;HPM_P1;HPM_P2
2023/09/13 00:00:10;;;;;;;21.45;13.10;;;;;;;;;;5054565;28;20196;-54
2023/09/13 00:03:00;;;;;;;19.55;12.63;;;;;;;;;;5054998;28;20212;-52
2023/09/13 00:05:28;;;;;;;19.90;12.00;;;;;;;;;;5054742;28;20208;-56
2023/09/13 00:07:55;;;;;;;21.98;13.27;;;;;;;;;;5054573;28;20200;-53
2023/09/13 00:10:22;;;;;;;22.77;13.60;;;;;;;;;;5054690;28;20560;-54
2023/09/13 00:12:49;;;;;;;20.42;13.00;;;;;;;;;;5054219;28;20712;-56
2023/09/13 00:15:17;;;;;;;22.30;12.80;;;;;;;;;;5054234;28;20277;-53
2023/09/13 00:17:44;;;;;;;21.77;12.80;;;;;;;;;;5054718;28;20192;-57
2023/09/13 00:20:11;;;;;;;25.23;13.25;;;;;;;;;;5054263;28;20671;-55
2023/09/13 00:22:38;;;;;;;22.95;14.13;;;;;;;;;;5054430;28;20273;-54
2023/09/13 00:25:06;;;;;;;18.98;12.88;;;;;;;;;;5054198;28;20290;-50
2023/09/13 00:27:33;;;;;;;23.92;13.02;;;;;;;;;;5054301;28;20205;-52
2023/09/13 00:30:00;;;;;;;26.33;12.25;;;;;;;;;;5054284;28;20208;-54
2023/09/13 00:32:27;;;;;;;25.90;12.95;;;;;;;;;;5053856;28;20232;-51
2023/09/13 00:34:54;;;;;;;20.38;12.90;;;;;;;;;;5053073;28;20212;-51
2023/09/13 00:37:22;;;;;;;22.77;11.50;;;;;;;;;;5069732;28;20235;-53
2023/09/13 00:39:49;;;;;;;18.42;11.95;;;;;;;;;;5054078;28;20292;-55
2023/09/13 00:42:16;;;;;;;21.10;12.65;;;;;;;;;;5052699;28;20204;-51
2023/09/13 00:44:43;;;;;;;21.90;13.35;;;;;;;;;;5053840;28;20208;-53
2023/09/13 00:47:11;;;;;;;22.80;13.13;;;;;;;;;;5053754;28;20719;-50
2023/09/13 00:49:38;;;;;;;20.60;12.43;;;;;;;;;;5053855;28;20208;-58
2023/09/13 00:52:06;;;;;;;16.70;11.93;;;;;;;;;;5069114;28;20208;-53
2023/09/13 00:54:33;;;;;;;18.00;11.65;;;;;;;;;;5036068;28;20223;-50
2023/09/13 00:57:01;;;;;;;21.27;12.52;;;;;;;;;;5036072;28;20211;-51
2023/09/13 00:59:28;;;;;;;18.40;11.38;;;;;;;;;;5069223;28;20208;-54
2023/09/13 01:01:55;;;;;;;17.95;12.32;;;;;;;;;;5052646;28;20206;-52
2023/09/13 01:04:22;;;;;;;22.85;11.93;;;;;;;;;;5054097;28;20200;-55
2023/09/13 01:06:51;;;;;;;22.65;11.95;;;;;;;;;;5036070;28;20207;-54
2023/09/13 01:09:18;;;;;;;24.42;11.90;;;;;;;;;;5052237;28;20215;-51
2023/09/13 01:11:45;;;;;;;21.13;12.65;;;;;;;;;;5053699;28;20215;-58
2023/09/13 01:14:12;;;;;;;21.08;13.10;;;;;;;;;;5053354;28;20702;-52
2023/09/13 01:16:51;;;;;;;20.58;12.57;;;;;;;;;;5053724;28;20232;-50
2023/09/13 01:19:44;;;;;;;22.33;13.68;;;;;;;;;;5035783;28;20200;-56
2023/09/13 01:22:37;;;;;;;21.83;12.45;;;;;;;;;;5052456;28;20242;-51
2023/09/13 01:25:29;;;;;;;23.40;13.95;;;;;;;;;;5052520;28;20204;-58
2023/09/13 01:28:20;;;;;;;21.65;13.75;;;;;;;;;;5036109;28;20235;-52
2023/09/13 01:30:48;;;;;;;20.48;13.18;;;;;;;;;;5053259;28;20188;-55
2023/09/13 01:33:15;;;;;;;20.90;13.20;;;;;;;;;;5052446;28;20236;-54
2023/09/13 01:35:43;;;;;;;22.60;14.57;;;;;;;;;;5054764;28;20610;-52
2023/09/13 01:38:10;;;;;;;23.20;13.88;;;;;;;;;;5057525;28;20204;-56
2023/09/13 01:40:40;;;;;;;25.00;14.70;;;;;;;;;;5057629;28;20204;-57
2023/09/13 01:43:07;;;;;;;24.02;14.63;;;;;;;;;;5056279;28;20230;-56
2023/09/13 01:45:35;;;;;;;22.05;14.35;;;;;;;;;;5056040;28;20661;-56
2023/09/13 01:48:04;;;;;;;25.40;15.25;;;;;;;;;;5057122;28;20211;-56
2023/09/13 01:50:31;;;;;;;22.30;13.73;;;;;;;;;;5061140;28;20207;-53
2023/09/13 01:53:01;;;;;;;24.80;13.70;;;;;;;;;;5075908;28;20236;-56
2023/09/13 01:55:30;;;;;;;22.27;12.50;;;;;;;;;;5075164;28;20180;-55
2023/09/13 01:57:57;;;;;;;24.60;13.35;;;;;;;;;;5075299;28;20206;-53
2023/09/13 02:00:24;;;;;;;23.25;13.73;;;;;;;;;;5056312;28;20199;-54
2023/09/13 02:02:52;;;;;;;25.30;13.43;;;;;;;;;;5075186;28;20265;-55
2023/09/13 02:05:19;;;;;;;31.75;13.32;;;;;;;;;;5074783;28;20200;-56
2023/09/13 02:07:47;;;;;;;19.98;12.95;;;;;;;;;;5074140;28;20215;-55
2023/09/13 02:10:14;;;;;;;22.85;13.38;;;;;;;;;;5073764;28;20603;-57
2023/09/13 02:12:41;;;;;;;22.90;13.05;;;;;;;;;;5075117;28;20209;-54
2023/09/13 02:15:09;;;;;;;22.58;13.88;;;;;;;;;;5075072;28;20207;-56
2023/09/13 02:17:36;;;;;;;24.15;14.10;;;;;;;;;;5075661;28;20195;-52
2023/09/13 02:20:04;;;;;;;21.95;13.90;;;;;;;;;;5076452;28;20199;-53
2023/09/13 02:22:31;;;;;;;25.73;14.18;;;;;;;;;;5075762;28;20207;-51
2023/09/13 02:25:00;;;;;;;18.58;13.02;;;;;;;;;;5076627;28;20203;-56
2023/09/13 02:27:28;;;;;;;22.80;14.15;;;;;;;;;;5075424;28;20214;-52
2023/09/13 02:29:55;;;;;;;21.63;13.95;;;;;;;;;;5075169;28;20235;-56
2023/09/13 02:32:23;;;;;;;18.65;13.23;;;;;;;;;;5076305;28;20282;-56
2023/09/13 02:34:50;;;;;;;24.42;13.52;;;;;;;;;;5076215;28;20227;-56
2023/09/13 02:37:17;;;;;;;21.15;14.13;;;;;;;;;;5075535;28;20659;-56
2023/09/13 02:39:45;;;;;;;27.65;14.30;;;;;;;;;;5076110;28;20295;-55
2023/09/13 02:42:12;;;;;;;20.50;13.10;;;;;;;;;;5076077;28;20199;-51
2023/09/13 02:44:40;;;;;;;24.08;14.13;;;;;;;;;;5075036;28;20207;-55
2023/09/13 02:47:07;;;;;;;23.88;13.52;;;;;;;;;;5073471;28;20204;-53
2023/09/13 02:49:34;;;;;;;20.15;13.70;;;;;;;;;;5074839;28;20668;-55
2023/09/13 02:52:02;;;;;;;23.73;14.82;;;;;;;;;;5075008;28;20324;-53
2023/09/13 02:54:29;;;;;;;26.15;15.13;;;;;;;;;;5075811;28;20231;-51
2023/09/13 02:56:56;;;;;;;22.73;14.20;;;;;;;;;;5075950;28;20226;-53
2023/09/13 02:59:28;;;;;;;22.25;14.93;;;;;;;;;;5074983;28;20214;-55
2023/09/13 03:01:56;;;;;;;22.02;14.02;;;;;;;;;;5074576;28;20687;-52
2023/09/13 03:04:23;;;;;;;22.45;14.23;;;;;;;;;;5074982;28;20306;-53
2023/09/13 03:06:51;;;;;;;25.05;15.70;;;;;;;;;;5074489;28;20199;-52
2023/09/13 03:09:18;;;;;;;24.08;16.23;;;;;;;;;;5074592;28;20199;-58
2023/09/13 03:11:46;;;;;;;27.23;15.88;;;;;;;;;;5057990;28;20656;-51
2023/09/13 03:14:13;;;;;;;21.25;14.02;;;;;;;;;;5074627;28;20227;-52
2023/09/13 03:16:40;;;;;;;24.40;14.52;;;;;;;;;;5074445;28;20234;-52
2023/09/13 03:19:09;;;;;;;25.45;15.48;;;;;;;;;;5074530;28;20203;-57
2023/09/13 03:21:37;;;;;;;26.05;14.88;;;;;;;;;;5074442;28;20215;-55
2023/09/13 03:24:06;;;;;;;24.33;14.35;;;;;;;;;;5075507;28;20210;-58
2023/09/13 03:26:38;;;;;;;23.67;14.35;;;;;;;;;;5073916;28;20203;-57
2023/09/13 03:29:06;;;;;;;24.45;14.10;;;;;;;;;;5074258;28;20625;-52
2023/09/13 03:31:35;;;;;;;21.95;14.27;;;;;;;;;;5068619;28;20682;-56
2023/09/13 03:34:07;;;;;;;20.67;14.23;;;;;;;;;;5071521;28;20218;-56
2023/09/13 03:36:35;;;;;;;23.40;14.70;;;;;;;;;;5071463;28;20215;-53
2023/09/13 03:39:03;;;;;;;23.20;13.82;;;;;;;;;;5073217;28;20283;-51
2023/09/13 03:41:32;;;;;;;22.42;13.75;;;;;;;;;;5073514;28;20202;-58
2023/09/13 03:43:59;;;;;;;20.85;13.85;;;;;;;;;;5072731;28;20212;-56
2023/09/13 03:46:28;;;;;;;24.92;13.40;;;;;;;;;;5072626;28;20236;-58
2023/09/13 03:48:57;;;;;;;21.52;13.77;;;;;;;;;;5071133;28;20211;-59
2023/09/13 03:51:25;;;;;;;25.95;14.88;;;;;;;;;;5063680;28;20214;-59
2023/09/13 03:53:52;;;;;;;25.60;15.32;;;;;;;;;;5069851;28;20228;-56
2023/09/13 03:56:20;;;;;;;21.55;13.98;;;;;;;;;;5053914;28;20211;-58
2023/09/13 03:58:47;;;;;;;23.35;14.27;;;;;;;;;;5055873;28;20318;-52
2023/09/13 04:01:15;;;;;;;27.30;15.20;;;;;;;;;;5055907;28;20223;-58
2023/09/13 04:03:42;;;;;;;23.42;14.48;;;;;;;;;;5064152;28;20223;-55
2023/09/13 04:06:10;;;;;;;21.33;14.38;;;;;;;;;;5073530;28;20223;-56
2023/09/13 04:08:38;;;;;;;24.73;15.30;;;;;;;;;;5062219;28;20233;-53
2023/09/13 04:11:05;;;;;;;23.70;14.98;;;;;;;;;;5070401;28;20222;-56
2023/09/13 04:13:32;;;;;;;26.45;14.68;;;;;;;;;;5071719;28;20585;-53
2023/09/13 04:16:05;;;;;;;23.90;14.77;;;;;;;;;;5070131;28;20254;-56
2023/09/13 04:18:34;;;;;;;22.35;15.30;;;;;;;;;;5060174;28;20266;-55
2023/09/13 04:21:01;;;;;;;27.85;15.00;;;;;;;;;;5058815;28;20245;-58
2023/09/13 04:23:29;;;;;;;26.25;15.05;;;;;;;;;;5057758;28;20224;-55
2023/09/13 04:25:57;;;;;;;24.20;15.27;;;;;;;;;;5064999;28;20260;-55
2023/09/13 04:28:25;;;;;;;22.30;14.30;;;;;;;;;;5071424;28;20219;-53
2023/09/13 04:30:52;;;;;;;25.33;14.80;;;;;;;;;;5070430;28;20281;-56
2023/09/13 04:33:50;;;;;;;19.98;12.90;;;;;;;;;;5070549;28;20229;-53
2023/09/13 04:36:20;;;;;;;20.58;12.35;;;;;;;;;;5087399;28;20215;-51
2023/09/13 04:38:48;;;;;;;20.48;13.13;;;;;;;;;;5071229;28;20226;-57
2023/09/13 04:41:16;;;;;;;21.05;13.50;;;;;;;;;;5071511;28;20287;-54
2023/09/13 04:43:43;;;;;;;25.13;15.48;;;;;;;;;;5053999;28;20307;-53
2023/09/13 04:46:12;;;;;;;21.27;13.68;;;;;;;;;;5069711;28;20235;-54
2023/09/13 04:48:40;;;;;;;25.25;14.75;;;;;;;;;;5069701;28;20715;-56
2023/09/13 04:51:10;;;;;;;23.38;14.20;;;;;;;;;;5076181;28;20222;-55
2023/09/13 04:53:38;;;;;;;25.38;13.70;;;;;;;;;;5092038;28;20218;-52
2023/09/13 04:56:06;;;;;;;24.63;15.75;;;;;;;;;;5092284;28;20674;-56
2023/09/13 04:58:39;;;;;;;24.55;13.93;;;;;;;;;;5090961;28;20772;-52
2023/09/13 05:01:06;;;;;;;25.30;14.35;;;;;;;;;;5091910;28;20230;-55
2023/09/13 05:03:34;;;;;;;19.70;13.85;;;;;;;;;;5092256;28;20222;-56
2023/09/13 05:06:02;;;;;;;28.05;14.60;;;;;;;;;;5092969;28;20234;-58
2023/09/13 05:08:32;;;;;;;26.17;15.48;;;;;;;;;;5093013;28;20225;-53
2023/09/13 05:11:01;;;;;;;25.33;15.32;;;;;;;;;;5091996;28;20227;-59
2023/09/13 05:13:28;;;;;;;25.60;16.20;;;;;;;;;;5092491;28;20711;-54
2023/09/13 05:15:56;;;;;;;26.40;16.60;;;;;;;;;;5092459;28;20245;-52
2023/09/13 05:18:23;;;;;;;28.58;16.73;;;;;;;;;;5087235;28;20250;-54
2023/09/13 05:20:50;;;;;;;28.98;17.25;;;;;;;;;;5072600;28;20211;-56
2023/09/13 05:23:17;;;;;;;27.85;16.98;;;;;;;;;;5072240;28;20203;-56
2023/09/13 05:25:45;;;;;;;27.95;18.38;;;;;;;;;;5073473;28;20203;-54
2023/09/13 05:28:13;;;;;;;29.27;17.23;;;;;;;;;;5073464;28;20213;-53
2023/09/13 05:30:42;;;;;;;25.50;16.88;;;;;;;;;;5073080;28;20212;-55
2023/09/13 05:33:09;;;;;;;26.48;16.52;;;;;;;;;;5073573;28;20199;-56
2023/09/13 05:35:36;;;;;;;26.52;17.15;;;;;;;;;;5073053;28;20223;-55
2023/09/13 05:38:04;;;;;;;31.92;19.33;;;;;;;;;;5073420;28;20215;-56
2023/09/13 05:40:31;;;;;;;25.98;18.60;;;;;;;;;;5073218;28;20211;-58
2023/09/13 05:42:58;;;;;;;39.28;18.60;;;;;;;;;;5073247;28;20203;-50
2023/09/13 05:45:25;;;;;;;27.15;18.15;;;;;;;;;;5073487;28;20203;-58
2023/09/13 05:47:53;;;;;;;31.58;19.15;;;;;;;;;;5073069;28;20199;-56
2023/09/13 05:50:20;;;;;;;27.50;18.13;;;;;;;;;;5073111;28;20259;-57
2023/09/13 05:52:47;;;;;;;29.20;19.50;;;;;;;;;;5073001;28;20654;-57
2023/09/13 05:55:15;;;;;;;36.95;19.67;;;;;;;;;;5072931;28;20234;-57
2023/09/13 05:57:42;;;;;;;32.10;19.05;;;;;;;;;;5073269;28;20227;-57
2023/09/13 06:00:10;;;;;;;30.52;20.25;;;;;;;;;;5073022;28;20199;-56
2023/09/13 06:02:37;;;;;;;32.00;19.05;;;;;;;;;;5072891;28;20294;-55
2023/09/13 06:05:06;;;;;;;32.67;19.65;;;;;;;;;;5073201;28;20218;-57
2023/09/13 06:07:36;;;;;;;32.75;20.02;;;;;;;;;;5073101;28;20234;-55
2023/09/13 06:10:04;;;;;;;31.38;19.85;;;;;;;;;;5072843;28;20211;-57
2023/09/13 06:12:31;;;;;;;29.75;19.52;;;;;;;;;;5072383;28;20624;-56
2023/09/13 06:14:59;;;;;;;30.67;19.85;;;;;;;;;;5048759;28;20235;-53
2023/09/13 06:17:26;;;;;;;35.58;20.20;;;;;;;;;;5051789;28;20248;-55
2023/09/13 06:19:53;;;;;;;32.40;20.15;;;;;;;;;;5033205;28;20600;-53
2023/09/13 06:22:20;;;;;;;31.98;19.35;;;;;;;;;;5059659;28;20223;-55
2023/09/13 06:24:48;;;;;;;30.95;19.27;;;;;;;;;;5075470;28;20223;-56
2023/09/13 06:27:15;;;;;;;25.35;17.15;;;;;;;;;;5075763;28;20227;-57
2023/09/13 06:29:42;;;;;;;30.52;17.73;;;;;;;;;;5075333;28;20340;-55
2023/09/13 06:32:09;;;;;;;25.92;17.20;;;;;;;;;;5075792;28;20630;-54
2023/09/13 06:34:57;;;;;;;23.63;15.80;;;;;;;;;;5075337;28;20687;-55
2023/09/13 06:37:25;;;;;;;25.17;16.13;;;;;;;;;;5075721;28;20234;-52
2023/09/13 06:39:54;;;;;;;27.83;16.67;;;;;;;;;;5075386;28;20227;-58
2023/09/13 06:42:21;;;;;;;25.48;15.70;;;;;;;;;;5075220;28;20300;-55
2023/09/13 06:44:56;;;;;;;27.10;15.68;;;;;;;;;;5075209;28;20308;-57
2023/09/13 06:47:43;;;;;;;26.40;15.40;;;;;;;;;;5075430;28;20230;-56
2023/09/13 06:50:10;;;;;;;26.13;15.70;;;;;;;;;;5075505;28;20215;-53
2023/09/13 06:52:40;;;;;;;28.88;15.88;;;;;;;;;;5075351;28;20321;-52
2023/09/13 06:55:28;;;;;;;28.55;15.63;;;;;;;;;;5075236;28;20243;-54
2023/09/13 06:57:58;;;;;;;28.65;15.32;;;;;;;;;;5073378;28;20722;-54
2023/09/13 07:00:29;;;;;;;31.90;16.50;;;;;;;;;;5075187;28;20232;-56
2023/09/13 07:03:14;;;;;;;27.58;16.65;;;;;;;;;;5075094;28;20227;-55
2023/09/13 07:05:44;;;;;;;22.27;14.55;;;;;;;;;;5075050;28;20310;-54
2023/09/13 07:08:11;;;;;;;26.27;15.35;;;;;;;;;;5074937;28;20711;-56
2023/09/13 07:10:39;;;;;;;26.83;15.75;;;;;;;;;;5074948;28;20227;-53
2023/09/13 07:13:06;;;;;;;24.35;14.68;;;;;;;;;;5074368;28;20238;-53
2023/09/13 07:15:34;;;;;;;24.95;14.52;;;;;;;;;;5074735;28;20238;-53
2023/09/13 07:18:01;;;;;;;21.13;13.80;;;;;;;;;;5074514;28;20718;-55
2023/09/13 07:20:28;;;;;;;21.85;14.15;;;;;;;;;;5074848;28;20227;-55
2023/09/13 07:22:55;;;;;;;23.02;13.40;;;;;;;;;;5074762;28;20227;-54
2023/09/13 07:25:22;;;;;;;23.77;14.35;;;;;;;;;;5074854;28;20227;-56
2023/09/13 07:27:49;;;;;;;20.00;13.10;;;;;;;;;;5073792;28;20230;-55
2023/09/13 07:30:18;;;;;;;20.90;13.25;;;;;;;;;;5074598;28;20235;-56
2023/09/13 07:32:47;;;;;;;19.92;12.75;;;;;;;;;;5073892;28;20223;-55
2023/09/13 07:35:15;;;;;;;22.77;13.20;;;;;;;;;;5074796;28;20637;-55
2023/09/13 07:37:42;;;;;;;20.63;11.63;;;;;;;;;;5074370;28;20230;-56
2023/09/13 07:40:10;;;;;;;22.67;12.18;;;;;;;;;;5074270;28;20704;-54
2023/09/13 07:42:38;;;;;;;19.70;12.30;;;;;;;;;;5072935;28;20660;-56
2023/09/13 07:45:07;;;;;;;22.70;12.63;;;;;;;;;;5073752;28;20231;-51
2023/09/13 07:47:34;;;;;;;21.48;12.88;;;;;;;;;;5074675;28;20228;-49
2023/09/13 07:50:01;;;;;;;20.35;11.50;;;;;;;;;;5074072;28;20235;-55
2023/09/13 07:52:29;;;;;;;23.58;12.43;;;;;;;;;;5074007;28;20765;-52
2023/09/13 07:55:16;;;;;;;17.90;11.50;;;;;;;;;;5073964;28;20235;-50
2023/09/13 07:57:43;;;;;;;18.45;10.82;;;;;;;;;;5073665;28;20569;-54
2023/09/13 08:00:11;;;;;;;19.75;11.43;;;;;;;;;;5074034;28;20219;-49
2023/09/13 08:02:41;;;;;;;17.58;11.07;;;;;;;;;;5074020;28;20230;-50
2023/09/13 08:05:08;;;;;;;19.88;12.13;;;;;;;;;;5073794;28;20220;-49
2023/09/13 08:07:36;;;;;;;21.27;12.00;;;;;;;;;;5073847;28;20223;-53
2023/09/13 08:10:04;;;;;;;18.38;11.70;;;;;;;;;;5073753;28;20628;-54
2023/09/13 08:12:31;;;;;;;17.85;11.15;;;;;;;;;;5073143;28;20227;-54
2023/09/13 08:14:58;;;;;;;20.95;11.93;;;;;;;;;;5073484;28;20231;-54
2023/09/13 08:17:25;;;;;;;19.70;12.85;;;;;;;;;;5073512;28;20235;-53
2023/09/13 08:19:52;;;;;;;16.90;11.20;;;;;;;;;;5073961;28;20258;-54
2023/09/13 08:22:19;;;;;;;18.88;11.05;;;;;;;;;;5074465;28;20223;-52
2023/09/13 08:25:06;;;;;;;18.00;11.63;;;;;;;;;;5074206;28;20211;-58
2023/09/13 08:27:36;;;;;;;17.25;10.27;;;;;;;;;;5074080;28;20616;-54
2023/09/13 08:30:04;;;;;;;19.83;11.07;;;;;;;;;;5074182;28;20200;-49
2023/09/13 08:32:31;;;;;;;15.90;10.73;;;;;;;;;;5074622;28;20300;-49
2023/09/13 08:34:58;;;;;;;18.98;10.52;;;;;;;;;;5073935;28;20624;-54
2023/09/13 08:37:26;;;;;;;22.08;10.98;;;;;;;;;;5074443;28;20199;-54
2023/09/13 08:39:57;;;;;;;22.30;11.10;;;;;;;;;;5074160;28;20203;-53
2023/09/13 08:42:26;;;;;;;22.38;10.85;;;;;;;;;;5073890;28;20729;-51
2023/09/13 08:44:54;;;;;;;17.67;10.90;;;;;;;;;;5073983;28;20207;-51
2023/09/13 08:47:22;;;;;;;18.13;10.43;;;;;;;;;;5072575;28;20605;-53
2023/09/13 08:49:51;;;;;;;17.45;9.60;;;;;;;;;;5072584;28;20261;-51
2023/09/13 08:52:19;;;;;;;16.35;10.48;;;;;;;;;;5074533;28;20199;-56
2023/09/13 08:54:49;;;;;;;15.68;10.13;;;;;;;;;;5072398;28;20313;-55
2023/09/13 08:57:25;;;;;;;21.05;9.98;;;;;;;;;;5072592;28;20241;-51
2023/09/13 08:59:53;;;;;;;20.92;10.77;;;;;;;;;;5083056;28;20199;-51
2023/09/13 09:02:23;;;;;;;18.17;9.60;;;;;;;;;;5091204;28;20220;-58
2023/09/13 09:04:52;;;;;;;17.73;9.43;;;;;;;;;;5078438;28;20211;-53
2023/09/13 09:07:19;;;;;;;19.48;9.80;;;;;;;;;;5073177;28;20211;-52
2023/09/13 09:09:47;;;;;;;16.67;10.05;;;;;;;;;;5072243;28;20260;-56
2023/09/13 09:12:18;;;;;;;15.90;9.93;;;;;;;;;;5073108;28;20202;-58
2023/09/13 09:14:46;;;;;;;13.45;9.02;;;;;;;;;;5073100;28;20203;-51
2023/09/13 09:17:14;;;;;;;18.33;8.95;;;;;;;;;;5071114;28;20231;-57
2023/09/13 09:19:41;;;;;;;15.50;8.52;;;;;;;;;;5071612;28;20199;-59
2023/09/13 09:22:10;;;;;;;17.08;9.20;;;;;;;;;;5072151;28;20223;-52
2023/09/13 09:24:39;;;;;;;13.15;7.93;;;;;;;;;;5072177;28;20199;-50
2023/09/13 09:27:06;;;;;;;13.80;8.95;;;;;;;;;;5073165;28;20226;-51
2023/09/13 09:29:39;;;;;;;15.13;8.55;;;;;;;;;;5072593;28;20656;-50
2023/09/13 09:32:08;;;;;;;12.23;8.23;;;;;;;;;;5073246;28;20692;-55
2023/09/13 09:34:41;;;;;;;13.68;8.80;;;;;;;;;;5071716;28;20210;-49
2023/09/13 09:37:09;;;;;;;12.55;8.18;;;;;;;;;;5073223;28;20631;-50
2023/09/13 09:39:39;;;;;;;14.90;9.23;;;;;;;;;;5073383;28;20210;-49
2023/09/13 09:42:06;;;;;;;14.70;8.82;;;;;;;;;;5072842;28;20203;-50
2023/09/13 09:44:33;;;;;;;11.40;7.50;;;;;;;;;;5072846;28;20200;-52
2023/09/13 09:47:00;;;;;;;10.80;7.80;;;;;;;;;;5073211;28;20211;-49
2023/09/13 09:49:28;;;;;;;12.18;7.95;;;;;;;;;;5073157;28;20671;-50
2023/09/13 09:51:55;;;;;;;10.70;8.13;;;;;;;;;;5072955;28;20204;-51
2023/09/13 09:54:22;;;;;;;14.13;8.07;;;;;;;;;;5072969;28;20604;-50
2023/09/13 09:56:51;;;;;;;14.02;8.40;;;;;;;;;;5074623;28;20298;-51
2023/09/13 09:59:18;;;;;;;12.15;7.90;;;;;;;;;;5076120;28;20276;-54
2023/09/13 10:01:46;;;;;;;12.40;8.18;;;;;;;;;;5077082;28;20202;-50
2023/09/13 10:04:16;;;;;;;14.75;8.73;;;;;;;;;;5077227;28;20203;-49
2023/09/13 10:06:57;;;;;;;14.25;7.88;;;;;;;;;;5076716;28;20683;-51
2023/09/13 10:09:42;;;;;;;15.10;8.68;;;;;;;;;;5077105;28;20572;-51
2023/09/13 10:12:09;;;;;;;13.30;8.40;;;;;;;;;;5076697;28;20242;-51
2023/09/13 10:14:38;;;;;;;11.60;8.43;;;;;;;;;;5077030;28;20211;-53
2023/09/13 10:17:06;;;;;;;13.48;8.23;;;;;;;;;;5076348;28;20239;-51
2023/09/13 10:19:34;;;;;;;14.48;8.10;;;;;;;;;;5076908;28;20226;-50
2023/09/13 10:22:03;;;;;;;11.48;7.97;;;;;;;;;;5076755;28;20203;-49
2023/09/13 10:24:44;;;;;;;14.13;9.27;;;;;;;;;;5076770;28;20199;-55
2023/09/13 10:27:11;;;;;;;15.98;8.65;;;;;;;;;;5076628;28;20264;-58
2023/09/13 10:30:03;;;;;;;13.35;8.52;;;;;;;;;;5076748;28;20282;-49
2023/09/13 10:32:40;;;;;;;17.05;7.50;;;;;;;;;;5076524;28;20621;-50
2023/09/13 10:35:08;;;;;;;12.50;7.47;;;;;;;;;;5075079;28;20663;-54
2023/09/13 10:37:43;;;;;;;12.63;7.82;;;;;;;;;;5076238;28;20590;-49
2023/09/13 10:40:16;;;;;;;13.65;7.55;;;;;;;;;;5075728;28;20183;-51
2023/09/13 10:42:43;;;;;;;12.27;7.97;;;;;;;;;;5075378;28;20294;-51
2023/09/13 10:45:14;;;;;;;11.52;7.95;;;;;;;;;;5076490;28;20200;-51
2023/09/13 10:47:41;;;;;;;13.13;7.55;;;;;;;;;;5076113;28;20195;-50
2023/09/13 10:50:09;;;;;;;12.60;7.68;;;;;;;;;;5076084;28;20204;-49
2023/09/13 10:52:36;;;;;;;12.10;7.90;;;;;;;;;;5076239;28;20207;-56
2023/09/13 10:55:05;;;;;;;12.05;7.90;;;;;;;;;;5074947;28;20208;-58
2023/09/13 10:57:33;;;;;;;11.40;8.02;;;;;;;;;;5076019;28;20260;-49
2023/09/13 11:00:09;;;;;;;13.88;7.90;;;;;;;;;;5076155;28;20203;-51
2023/09/13 11:02:37;;;;;;;12.60;7.30;;;;;;;;;;5076039;28;20198;-49
2023/09/13 11:05:05;;;;;;;12.23;7.60;;;;;;;;;;5076234;28;20260;-49
2023/09/13 11:07:33;;;;;;;11.90;7.65;;;;;;;;;;5074050;28;20204;-50
2023/09/13 11:10:14;;;;;;;14.43;7.72;;;;;;;;;;5075508;28;20229;-49
2023/09/13 11:12:48;;;;;;;12.02;7.18;;;;;;;;;;5075453;28;20188;-59
2023/09/13 11:15:23;;;;;;;10.77;7.18;;;;;;;;;;5075161;28;20745;-56
2023/09/13 11:17:56;;;;;;;12.02;7.38;;;;;;;;;;5075572;28;20200;-53
2023/09/13 11:20:36;;;;;;;10.48;7.40;;;;;;;;;;5075210;28;20192;-52
2023/09/13 11:23:10;;;;;;;13.02;7.75;;;;;;;;;;5075181;28;20221;-50
2023/09/13 11:26:02;;;;;;;15.95;7.75;;;;;;;;;;5075023;28;20256;-49
2023/09/13 11:28:42;;;;;;;11.02;7.00;;;;;;;;;;5074760;28;20244;-58
2023/09/13 11:31:11;;;;;;;10.90;7.15;;;;;;;;;;5075584;28;20191;-50
2023/09/13 11:33:58;;;;;;;11.65;8.35;;;;;;;;;;5074828;28;20211;-59
2023/09/13 11:36:30;;;;;;;10.20;7.32;;;;;;;;;;5073464;28;20261;-59
2023/09/13 11:39:01;;;;;;;11.52;7.32;;;;;;;;;;5075228;28;20184;-58
2023/09/13 11:41:37;;;;;;;11.77;7.55;;;;;;;;;;5075042;28;20546;-59
2023/09/13 11:44:23;;;;;;;12.57;7.50;;;;;;;;;;5074182;28;20200;-57
2023/09/13 11:47:00;;;;;;;16.52;8.50;;;;;;;;;;5074919;28;20191;-59
2023/09/13 11:49:28;;;;;;;12.73;7.93;;;;;;;;;;5074605;28;20203;-52
2023/09/13 11:52:04;;;;;;;10.35;7.38;;;;;;;;;;5073399;28;20195;-60
2023/09/13 11:54:57;;;;;;;11.82;8.27;;;;;;;;;;5074706;28;20184;-58
2023/09/13 11:57:50;;;;;;;14.48;8.25;;;;;;;;;;5074108;28;20219;-59
2023/09/13 12:00:25;;;;;;;14.65;8.23;;;;;;;;;;5074666;28;20223;-59
2023/09/13 12:02:56;;;;;;;11.80;7.80;;;;;;;;;;5074639;28;20199;-50
2023/09/13 12:05:28;;;;;;;13.00;7.82;;;;;;;;;;5074192;28;20184;-58
2023/09/13 12:08:20;;;;;;;12.80;7.85;;;;;;;;;;5074538;28;20195;-57
2023/09/13 12:10:50;;;;;;;14.73;7.82;;;;;;;;;;5074195;28;20187;-53
2023/09/13 12:13:18;;;;;;;15.27;8.30;;;;;;;;;;5055277;28;20203;-59
2023/09/13 12:16:03;;;;;;;14.77;7.97;;;;;;;;;;5073934;28;20247;-58
2023/09/13 12:18:31;;;;;;;16.95;8.80;;;;;;;;;;5074289;28;20537;-59
2023/09/13 12:20:58;;;;;;;18.90;8.50;;;;;;;;;;5070464;28;20553;-58
2023/09/13 12:23:26;;;;;;;17.13;7.82;;;;;;;;;;5058559;28;20673;-57
2023/09/13 12:25:57;;;;;;;13.20;8.23;;;;;;;;;;5071740;28;20231;-58
2023/09/13 12:28:28;;;;;;;11.43;7.78;;;;;;;;;;5070836;28;20230;-59
2023/09/13 12:30:56;;;;;;;14.63;7.90;;;;;;;;;;5070660;28;20314;-53
2023/09/13 12:33:24;;;;;;;11.68;8.00;;;;;;;;;;5073523;28;20285;-51
2023/09/13 12:35:52;;;;;;;12.27;7.93;;;;;;;;;;5072970;28;20222;-52
2023/09/13 12:38:20;;;;;;;11.07;8.23;;;;;;;;;;5072686;28;20227;-56
2023/09/13 12:40:54;;;;;;;15.73;8.35;;;;;;;;;;5072417;28;20629;-53
2023/09/13 12:43:26;;;;;;;15.95;8.20;;;;;;;;;;5070759;28;20280;-58
2023/09/13 12:45:54;;;;;;;11.07;7.88;;;;;;;;;;5073105;28;20247;-50
2023/09/13 12:48:24;;;;;;;17.20;8.38;;;;;;;;;;5072736;28;20590;-58
2023/09/13 12:50:52;;;;;;;15.45;8.25;;;;;;;;;;5072649;28;20603;-51
2023/09/13 12:53:20;;;;;;;16.83;8.07;;;;;;;;;;5072214;28;20226;-55
2023/09/13 12:55:47;;;;;;;18.70;8.30;;;;;;;;;;5071612;28;20294;-51
2023/09/13 12:58:18;;;;;;;12.32;7.55;;;;;;;;;;5073060;28;20246;-51
2023/09/13 13:00:51;;;;;;;14.25;7.80;;;;;;;;;;5072661;28;20593;-55
2023/09/13 13:03:21;;;;;;;11.65;7.40;;;;;;;;;;5072897;28;20223;-51
2023/09/13 13:05:49;;;;;;;17.10;8.40;;;;;;;;;;5071642;28;20310;-53
2023/09/13 13:08:16;;;;;;;12.82;7.28;;;;;;;;;;5072554;28;20227;-57
2023/09/13 13:11:00;;;;;;;13.18;8.82;;;;;;;;;;5072790;28;20222;-52
2023/09/13 13:13:36;;;;;;;11.75;8.25;;;;;;;;;;5072809;28;20226;-50
2023/09/13 13:16:15;;;;;;;10.98;8.35;;;;;;;;;;5072449;28;20246;-51
2023/09/13 13:18:51;;;;;;;13.05;8.90;;;;;;;;;;5072602;28;20234;-52
2023/09/13 13:21:23;;;;;;;12.02;8.30;;;;;;;;;;5072575;28;20218;-51
2023/09/13 13:23:53;;;;;;;12.63;8.00;;;;;;;;;;5072501;28;20227;-50
2023/09/13 13:26:21;;;;;;;13.60;8.38;;;;;;;;;;5036915;28;20235;-53
2023/09/13 13:28:50;;;;;;;14.95;8.93;;;;;;;;;;5072506;28;20234;-50
2023/09/13 13:31:19;;;;;;;14.63;8.68;;;;;;;;;;5071796;28;20257;-54
2023/09/13 13:33:46;;;;;;;14.95;8.52;;;;;;;;;;5072563;28;20223;-52
2023/09/13 13:36:14;;;;;;;14.43;8.82;;;;;;;;;;5072310;28;20238;-57
2023/09/13 13:38:41;;;;;;;15.00;9.00;;;;;;;;;;5071273;28;20574;-50
2023/09/13 13:41:10;;;;;;;14.00;8.90;;;;;;;;;;5072327;28;20227;-50
2023/09/13 13:43:42;;;;;;;12.35;9.23;;;;;;;;;;5072356;28;20231;-49
2023/09/13 13:46:15;;;;;;;14.20;8.52;;;;;;;;;;5072547;28;20258;-50
2023/09/13 13:48:44;;;;;;;14.73;9.43;;;;;;;;;;5072506;28;20219;-58
2023/09/13 13:51:11;;;;;;;12.02;8.23;;;;;;;;;;5072356;28;20223;-49
2023/09/13 13:53:38;;;;;;;11.88;8.45;;;;;;;;;;5071703;28;20310;-53
2023/09/13 13:56:06;;;;;;;13.32;8.20;;;;;;;;;;5072320;28;20235;-52
2023/09/13 13:58:33;;;;;;;17.20;8.43;;;;;;;;;;5072438;28;20227;-56
2023/09/13 14:01:04;;;;;;;12.38;8.60;;;;;;;;;;5072029;28;20599;-58
2023/09/13 14:03:31;;;;;;;14.00;9.38;;;;;;;;;;5072163;28;20219;-54
2023/09/13 14:05:59;;;;;;;14.75;8.73;;;;;;;;;;5072043;28;20306;-56
2023/09/13 14:08:26;;;;;;;12.60;8.60;;;;;;;;;;5071654;28;20277;-52
2023/09/13 14:10:53;;;;;;;13.55;8.40;;;;;;;;;;5071984;28;20215;-50
2023/09/13 14:13:21;;;;;;;11.65;8.05;;;;;;;;;;5071809;28;20583;-57
2023/09/13 14:15:48;;;;;;;15.38;8.15;;;;;;;;;;5072182;28;20254;-51
2023/09/13 14:18:15;;;;;;;13.35;8.05;;;;;;;;;;5072084;28;20262;-54
2023/09/13 14:20:44;;;;;;;17.23;9.13;;;;;;;;;;5071863;28;20226;-50
2023/09/13 14:23:12;;;;;;;14.02;8.38;;;;;;;;;;5071605;28;20257;-55
2023/09/13 14:25:41;;;;;;;13.10;8.85;;;;;;;;;;5072146;28;20280;-54
2023/09/13 14:28:12;;;;;;;16.92;8.77;;;;;;;;;;5071944;28;20318;-51
2023/09/13 14:30:40;;;;;;;14.60;8.93;;;;;;;;;;5071945;28;20720;-56
2023/09/13 14:33:07;;;;;;;15.95;8.60;;;;;;;;;;5070801;28;20562;-57
2023/09/13 14:35:35;;;;;;;17.92;8.65;;;;;;;;;;5071518;28;20292;-50